This is the latest recevied weather packets stored in our database for station/object KE4PKT-13. If no packets are shown the sender has not sent any weather packets the latest 10 day(s).
| Time | Temp. | Humidity | Pressure | Rain* | Wind** | Luminosity | Snow |
|---|---|---|---|---|---|---|---|
| 1787765698 | 27.22° C | 55% | 1015 hPa | 0 mm | - | - | - |
| 1787763897 | 28.33° C | 53% | 1015 hPa | 0 mm | - | - | - |
| 1787762098 | 27.78° C | 57% | 1015.3 hPa | 0 mm | - | - | - |
| 1787691866 | 27.22° C | 50% | 1020.5 hPa | 0 mm | - | - | - |
| 1787482513 | 15° C | 96% | 1018.4 hPa | 0 mm | - | - | - |
| 1787482273 | 15.56° C | 96% | 1018.4 hPa | 0 mm | - | - | - |
| 1787482033 | 15.56° C | 96% | 1018.4 hPa | 0 mm | - | - | - |
| 1787481913 | 15.56° C | 96% | 1018.4 hPa | 0 mm | - | - | - |
| 1787481793 | 15.56° C | 96% | 1018.4 hPa | 0 mm | - | - | - |
| 1787481733 | 15.56° C | 96% | 1018.3 hPa | 0 mm | - | - | - |
| 1787429003 | 27.78° C | 70% | 1014.6 hPa | 0 mm | - | - | - |
| 1787427203 | 27.78° C | 72% | 1015 hPa | 0 mm | - | - | - |
| 1787425404 | 27.78° C | 72% | 1015.2 hPa | 0 mm | - | - | - |
| 1787423602 | 29.44° C | 68% | 1015.6 hPa | 0 mm | - | - | - |
| 1787421805 | 28.89° C | 69% | 1016.3 hPa | 0 mm | - | - | - |
| 1787420002 | 28.33° C | 71% | 1016.8 hPa | 0 mm | - | - | - |
| 1787418203 | 28.89° C | 69% | 1016.9 hPa | 0 mm | - | - | - |
| 1787416402 | 28.33° C | 68% | 1017 hPa | 0 mm | - | - | - |
| 1787414603 | 27.78° C | 69% | 1017.3 hPa | 0 mm | - | - | - |
| 1787412802 | 26.67° C | 73% | 1017.6 hPa | 0 mm | - | - | - |
| 1787411002 | 26.67° C | 70% | 1017.5 hPa | 0 mm | - | - | - |
| 1787409203 | 26.11° C | 82% | 1017.5 hPa | 0 mm | - | - | - |
| 1787407402 | 24.44° C | 93% | 1017.6 hPa | 0 mm | - | - | - |
| 1787405602 | 22.22° C | 99% | 1017.8 hPa | 0 mm | - | - | - |
| 1787403803 | 21.11° C | 99% | 1018.1 hPa | 0 mm | - | - | - |
* Rain latest hour (hover to see other rain measurements)
** Current wind speed in m/s (hover to see current wind gust speed)